Time;durP1;ratioP1;P1;durP2;ratioP2;P2;SDS_P1;SDS_P2;PMS_P1;PMS_P2;Temp;Humidity;BMP_temperature;BMP_pressure;BME280_temperature;BME280_humidity;BME280_pressure;Samples;Min_cycle;Max_cycle;Signal;HPM_P1;HPM_P2
2024/02/05 00:00:11;;;;;;;16.05;2.70;;;;;;;10.01;100.00;101001.91;4922889;28;20039;-93
2024/02/05 00:02:51;;;;;;;23.48;4.22;;;;;;;10.01;100.00;100996.63;4946987;28;20106;-93
2024/02/05 00:05:27;;;;;;;14.82;2.92;;;;;;;10.05;100.00;100998.88;4942810;28;20050;-94
2024/02/05 00:07:59;;;;;;;13.32;4.05;;;;;;;9.97;100.00;100976.72;4946924;28;20050;-95
2024/02/05 00:10:43;;;;;;;13.15;2.78;;;;;;;10.00;100.00;100973.81;4942737;28;20035;-95
2024/02/05 00:13:09;;;;;;;18.55;3.30;;;;;;;9.93;100.00;100973.50;4941606;28;20086;-92
2024/02/05 00:16:17;;;;;;;;;;;;;;;;;;;;;
2024/02/05 00:18:52;;;;;;;14.30;2.80;;;;;;;9.99;100.00;100980.06;4945980;28;20092;-95
2024/02/05 00:26:27;;;;;;;10.70;2.78;;;;;;;9.87;100.00;100987.19;4910904;29;20091;-93
2024/02/05 00:29:39;;;;;;;10.10;2.40;;;;;;;9.90;100.00;100976.38;4906503;29;20044;-92
2024/02/05 00:32:37;;;;;;;15.25;2.92;;;;;;;9.92;100.00;100970.00;4893793;29;20048;-92
2024/02/05 00:35:21;;;;;;;10.40;2.47;;;;;;;9.93;100.00;100974.34;4893022;29;20067;-94
2024/02/05 00:38:05;;;;;;;8.25;2.70;;;;;;;9.98;100.00;100960.75;4944477;28;20039;-95
2024/02/05 00:40:41;;;;;;;16.45;4.45;;;;;;;9.95;100.00;100970.72;4923822;28;20042;-96
2024/02/05 00:46:57;;;;;;;18.65;3.17;;;;;;;9.97;100.00;100982.00;4940615;28;20043;-94
2024/02/05 00:49:35;;;;;;;13.77;2.83;;;;;;;9.96;100.00;100973.25;4939799;28;20068;-96
2024/02/05 00:52:14;;;;;;;15.85;3.42;;;;;;;9.94;100.00;100975.16;4926530;28;20042;-94
2024/02/05 00:54:42;;;;;;;18.30;3.10;;;;;;;9.96;100.00;100988.22;4938157;28;20058;-93
2024/02/05 00:57:08;;;;;;;20.67;2.75;;;;;;;9.96;100.00;100973.25;4942060;28;20038;-94
2024/02/05 01:00:17;;;;;;;17.42;3.55;;;;;;;9.99;100.00;100975.63;4943954;28;20042;-95
2024/02/05 01:02:52;;;;;;;13.70;2.90;;;;;;;9.99;100.00;100962.41;4953634;28;20085;-94
2024/02/05 01:05:53;;;;;;;13.57;2.97;;;;;;;9.96;100.00;100957.41;4954591;28;20093;-94
2024/02/05 01:08:42;;;;;;;14.60;3.25;;;;;;;9.95;100.00;100952.25;4974297;28;20039;-94
2024/02/05 01:11:11;;;;;;;15.63;4.20;;;;;;;9.90;100.00;100960.53;4939033;28;20049;-95
2024/02/05 01:13:44;;;;;;;13.40;3.33;;;;;;;9.86;100.00;100944.09;4943264;28;20097;-94
2024/02/05 01:16:15;;;;;;;12.63;2.97;;;;;;;9.90;100.00;100928.84;4942489;28;20042;-95
2024/02/05 01:18:44;;;;;;;14.63;2.95;;;;;;;9.92;100.00;100935.69;4943117;28;20077;-93
2024/02/05 01:21:33;;;;;;;11.07;2.58;;;;;;;9.87;100.00;100942.31;4930860;28;20035;-93
2024/02/05 01:23:58;;;;;;;12.10;3.13;;;;;;;9.81;100.00;100927.81;4928324;29;20050;-92
2024/02/05 01:26:27;;;;;;;19.95;3.60;;;;;;;9.85;100.00;100926.59;4925515;28;20038;-93
2024/02/05 01:28:53;;;;;;;16.45;3.13;;;;;;;9.75;100.00;100923.03;4957410;28;20037;-95
2024/02/05 01:31:28;;;;;;;8.43;3.30;;;;;;;9.82;100.00;100918.94;4941625;28;20035;-96
2024/02/05 01:34:16;;;;;;;16.05;3.38;;;;;;;9.76;100.00;100922.91;4975339;28;20129;-95
2024/02/05 01:36:45;;;;;;;14.80;3.08;;;;;;;9.67;100.00;100921.03;4916218;29;20534;-93
2024/02/05 01:39:23;;;;;;;12.35;3.40;;;;;;;9.71;100.00;100919.84;4941727;28;20486;-94
2024/02/05 01:41:59;;;;;;;12.02;2.95;;;;;;;9.70;100.00;100912.84;4950575;28;20037;-92
2024/02/05 01:44:25;;;;;;;15.20;2.88;;;;;;;9.57;100.00;100910.41;4925288;28;20035;-92
2024/02/05 01:46:54;;;;;;;13.10;2.80;;;;;;;9.63;100.00;100904.63;4931510;28;20477;-94
2024/02/05 01:49:25;;;;;;;20.30;3.03;;;;;;;9.53;100.00;100901.91;4957893;28;20042;-95
2024/02/05 01:51:56;;;;;;;12.15;2.72;;;;;;;9.61;100.00;100901.28;4944387;28;20050;-96
2024/02/05 01:54:25;;;;;;;11.00;3.50;;;;;;;9.53;100.00;100895.78;4938692;28;20062;-91
2024/02/05 01:57:01;;;;;;;11.60;2.55;;;;;;;9.53;100.00;100883.44;4955735;28;20278;-93
2024/02/05 01:59:30;;;;;;;11.63;3.05;;;;;;;9.59;100.00;100884.72;4925808;28;20031;-95
2024/02/05 02:02:03;;;;;;;12.00;2.78;;;;;;;9.58;100.00;100866.38;4962224;28;20055;-93
2024/02/05 02:04:32;;;;;;;10.93;2.97;;;;;;;9.55;100.00;100888.59;4939915;28;20043;-93
2024/02/05 02:07:01;;;;;;;10.55;2.80;;;;;;;9.54;100.00;100871.91;4941320;28;20037;-91
2024/02/05 02:09:36;;;;;;;14.68;3.30;;;;;;;9.48;100.00;100869.78;4932686;28;20037;-92
2024/02/05 02:12:11;;;;;;;13.20;3.10;;;;;;;9.51;100.00;100869.53;4938576;28;20050;-94
2024/02/05 02:14:37;;;;;;;13.50;2.90;;;;;;;9.53;100.00;100879.94;4937438;28;20042;-92
2024/02/05 02:17:05;;;;;;;9.98;2.42;;;;;;;9.52;100.00;100854.53;4942146;28;20041;-91
2024/02/05 02:19:52;;;;;;;;;;;;;;;;;;;;;
2024/02/05 02:22:39;;;;;;;9.95;2.53;;;;;;;9.58;100.00;100859.28;4951725;28;20117;-92
2024/02/05 02:25:10;;;;;;;11.02;2.53;;;;;;;9.57;100.00;100852.34;4930758;28;20034;-96
2024/02/05 02:27:42;;;;;;;13.15;2.40;;;;;;;9.58;100.00;100845.25;4951143;28;20034;-95
2024/02/05 02:30:18;;;;;;;7.50;1.73;;;;;;;9.53;100.00;100832.44;4927785;28;20057;-93
2024/02/05 02:33:15;;;;;;;11.93;2.60;;;;;;;9.57;100.00;100825.97;4956346;28;20046;-92
2024/02/05 02:35:59;;;;;;;6.18;2.05;;;;;;;9.59;100.00;100829.28;4928829;28;20062;-92
2024/02/05 02:38:48;;;;;;;10.82;2.10;;;;;;;9.57;100.00;100825.13;4947526;28;20050;-94
2024/02/05 02:41:36;;;;;;;16.48;2.83;;;;;;;9.54;100.00;100820.91;4938169;28;20035;-93
2024/02/05 02:44:03;;;;;;;8.57;2.22;;;;;;;9.53;100.00;100832.44;4938456;28;20034;-92
2024/02/05 02:46:33;;;;;;;10.18;2.80;;;;;;;9.52;100.00;100820.22;4950454;28;20042;-90
2024/02/05 02:48:59;;;;;;;17.50;2.95;;;;;;;9.54;100.00;100824.41;4925841;28;20130;-91
2024/02/05 02:51:27;;;;;;;15.18;2.95;;;;;;;9.51;100.00;100803.53;4933162;28;20042;-92
2024/02/05 02:53:54;;;;;;;12.93;2.67;;;;;;;9.47;100.00;100802.16;4924511;28;20558;-93
2024/02/05 02:56:22;;;;;;;10.65;3.15;;;;;;;9.43;100.00;100795.44;4938535;28;20053;-96
2024/02/05 02:58:48;;;;;;;11.90;2.28;;;;;;;9.47;100.00;100806.56;4939355;28;20035;-94
2024/02/05 03:01:14;;;;;;;10.27;2.40;;;;;;;9.39;100.00;100796.66;4934957;29;20054;-94
2024/02/05 03:03:40;;;;;;;12.13;2.88;;;;;;;9.39;100.00;100809.84;4929997;28;20886;-94
2024/02/05 03:06:08;;;;;;;15.95;2.85;;;;;;;9.38;100.00;100803.72;4937523;28;20047;-93
2024/02/05 03:08:34;;;;;;;10.13;2.55;;;;;;;9.43;100.00;100811.25;4922140;29;20055;-93
2024/02/05 03:11:00;;;;;;;15.18;3.13;;;;;;;9.37;100.00;100799.44;4920574;29;20482;-94
2024/02/05 03:13:26;;;;;;;10.32;2.58;;;;;;;9.41;100.00;100800.03;4921273;29;20517;-93
2024/02/05 03:15:52;;;;;;;13.45;3.00;;;;;;;9.38;100.00;100802.91;4919474;28;20035;-92
2024/02/05 03:18:18;;;;;;;13.80;2.97;;;;;;;9.37;100.00;100799.44;4924298;29;20035;-94
2024/02/05 03:20:43;;;;;;;11.52;2.85;;;;;;;9.39;100.00;100794.03;4940960;28;20058;-93
2024/02/05 03:23:11;;;;;;;14.90;2.63;;;;;;;9.38;100.00;100789.72;4925922;29;20069;-94
2024/02/05 03:25:38;;;;;;;15.90;4.45;;;;;;;9.38;100.00;100790.53;4906967;29;20043;-92
2024/02/05 03:28:04;;;;;;;12.70;2.67;;;;;;;9.28;100.00;100782.56;4909580;28;20039;-95
2024/02/05 03:30:31;;;;;;;19.75;2.92;;;;;;;9.32;100.00;100785.78;4934879;29;20106;-92
2024/02/05 03:32:58;;;;;;;14.30;2.22;;;;;;;9.28;100.00;100779.94;4926698;29;20039;-91
2024/02/05 03:35:27;;;;;;;12.35;2.95;;;;;;;9.34;100.00;100788.28;4921187;29;20035;-92
2024/02/05 03:37:54;;;;;;;8.52;2.33;;;;;;;9.33;100.00;100778.72;4923638;28;20043;-93
2024/02/05 03:40:21;;;;;;;6.82;2.00;;;;;;;9.32;100.00;100774.41;4910280;29;20046;-93
2024/02/05 03:42:51;;;;;;;14.18;3.38;;;;;;;9.35;100.00;100768.88;4933926;28;20053;-93
2024/02/05 03:45:18;;;;;;;13.48;2.90;;;;;;;9.30;100.00;100767.44;4924635;28;20030;-93
2024/02/05 03:47:44;;;;;;;11.60;2.70;;;;;;;9.33;100.00;100762.88;4923496;29;20035;-95
2024/02/05 03:50:10;;;;;;;17.13;2.63;;;;;;;9.33;100.00;100762.88;4904789;28;20043;-95
2024/02/05 03:52:37;;;;;;;12.57;2.53;;;;;;;9.38;100.00;100766.78;4909066;28;20043;-94
2024/02/05 03:55:06;;;;;;;11.95;2.83;;;;;;;9.42;100.00;100760.31;4924814;28;20053;-94
2024/02/05 03:57:33;;;;;;;13.63;2.50;;;;;;;9.38;100.00;100744.88;4923912;29;20553;-94
2024/02/05 04:00:01;;;;;;;15.88;2.60;;;;;;;9.38;100.00;100747.50;4914265;28;20090;-91
2024/02/05 04:02:28;;;;;;;15.35;3.58;;;;;;;9.33;100.00;100739.13;4907303;29;20801;-94
2024/02/05 04:04:56;;;;;;;18.05;2.53;;;;;;;9.33;100.00;100736.50;4926162;29;20043;-92
2024/02/05 04:07:24;;;;;;;14.02;2.53;;;;;;;9.26;100.00;100733.53;4953072;28;20115;-94
2024/02/05 04:09:49;;;;;;;11.43;2.80;;;;;;;9.29;100.00;100747.31;4915987;29;20050;-91
2024/02/05 04:12:15;;;;;;;12.38;3.25;;;;;;;9.28;100.00;100739.53;4944228;29;20035;-92
2024/02/05 04:14:41;;;;;;;13.10;3.10;;;;;;;9.22;100.00;100727.66;4934501;28;20130;-94
2024/02/05 04:17:10;;;;;;;19.40;3.10;;;;;;;9.25;100.00;100727.41;4908765;29;20373;-95
2024/02/05 04:19:44;;;;;;;14.48;3.38;;;;;;;9.34;100.00;100731.09;4899970;29;20058;-95
2024/02/05 04:22:13;;;;;;;20.58;2.90;;;;;;;9.32;100.00;100724.28;4942210;29;20489;-92
2024/02/05 04:24:39;;;;;;;13.27;4.13;;;;;;;9.26;100.00;100715.91;4908626;28;20501;-93
2024/02/05 04:27:06;;;;;;;11.90;2.38;;;;;;;9.25;100.00;100723.97;4909537;29;20032;-94
2024/02/05 04:29:36;;;;;;;10.60;3.17;;;;;;;9.30;100.00;100717.31;4915384;29;20061;-91
2024/02/05 04:32:02;;;;;;;12.02;2.63;;;;;;;9.26;100.00;100710.63;4924523;29;20061;-95
2024/02/05 04:34:28;;;;;;;17.98;3.17;;;;;;;9.25;100.00;100711.59;4905500;28;20035;-93
2024/02/05 04:36:55;;;;;;;10.55;3.00;;;;;;;9.29;100.00;100710.38;4909677;29;20130;-93
2024/02/05 04:39:23;;;;;;;15.63;3.25;;;;;;;9.29;100.00;100697.19;4911828;29;20039;-94
2024/02/05 04:41:49;;;;;;;14.25;3.00;;;;;;;9.26;100.00;100697.44;4918292;29;20043;-93
2024/02/05 04:44:16;;;;;;;20.88;3.42;;;;;;;9.25;100.00;100693.13;4910566;29;20034;-92
2024/02/05 04:46:43;;;;;;;15.30;3.47;;;;;;;9.30;100.00;100696.22;4909287;28;20058;-95
2024/02/05 04:49:09;;;;;;;17.08;3.85;;;;;;;9.23;100.00;100683.69;4945326;28;20038;-94
2024/02/05 04:51:35;;;;;;;13.85;2.97;;;;;;;9.27;100.00;100690.38;4927690;29;20043;-94
2024/02/05 04:54:02;;;;;;;15.65;3.65;;;;;;;9.32;100.00;100682.06;4920327;29;20078;-94
2024/02/05 04:56:28;;;;;;;20.00;2.70;;;;;;;9.33;100.00;100683.75;4904750;29;20047;-95
2024/02/05 04:58:54;;;;;;;12.25;2.63;;;;;;;9.33;100.00;100679.31;4955246;29;20093;-94
2024/02/05 05:01:20;;;;;;;17.05;2.95;;;;;;;9.33;100.00;100678.47;4923020;29;20054;-93
2024/02/05 05:03:46;;;;;;;17.92;2.95;;;;;;;9.25;100.00;100669.38;4906266;29;20082;-94
2024/02/05 05:06:11;;;;;;;15.65;2.33;;;;;;;9.32;100.00;100666.25;4938733;29;20082;-92
2024/02/05 05:08:37;;;;;;;17.30;2.28;;;;;;;9.29;100.00;100664.69;4942952;28;20034;-93
2024/02/05 05:11:03;;;;;;;14.60;2.35;;;;;;;9.32;100.00;100658.34;4948397;28;20070;-95
2024/02/05 05:13:30;;;;;;;15.38;2.47;;;;;;;9.33;100.00;100654.72;4946837;28;20066;-93
2024/02/05 05:15:56;;;;;;;11.40;1.52;;;;;;;9.32;100.00;100648.59;4962834;28;20077;-93
2024/02/05 05:18:23;;;;;;;7.03;1.63;;;;;;;9.33;100.00;100650.28;4951727;28;20089;-94
2024/02/05 05:20:48;;;;;;;7.15;1.63;;;;;;;9.37;100.00;100653.47;4942362;28;20034;-93
2024/02/05 05:23:17;;;;;;;9.82;2.13;;;;;;;9.42;100.00;100653.94;4949553;28;20041;-93
2024/02/05 05:25:43;;;;;;;9.60;1.70;;;;;;;9.41;100.00;100652.28;4934094;29;20066;-93
2024/02/05 05:28:09;;;;;;;7.45;1.52;;;;;;;9.39;100.00;100641.84;4941432;28;20110;-93
2024/02/05 05:30:35;;;;;;;11.48;1.13;;;;;;;9.45;100.00;100648.38;4974295;28;20035;-94
2024/02/05 05:33:01;;;;;;;3.40;0.90;;;;;;;9.45;100.00;100634.34;4948332;28;20622;-93
2024/02/05 05:35:27;;;;;;;12.68;2.38;;;;;;;9.49;100.00;100639.22;4954888;28;20057;-94
2024/02/05 05:37:53;;;;;;;10.48;1.10;;;;;;;9.49;100.00;100647.16;4932361;28;20374;-94
2024/02/05 05:40:19;;;;;;;5.18;0.90;;;;;;;9.51;100.00;100639.09;4941289;28;20039;-94
2024/02/05 05:42:45;;;;;;;8.23;0.90;;;;;;;9.49;100.00;100627.88;4946613;28;20041;-95
2024/02/05 05:45:11;;;;;;;6.07;0.80;;;;;;;9.54;100.00;100621.22;4934615;28;20029;-95
2024/02/05 05:47:40;;;;;;;3.85;0.80;;;;;;;9.63;100.00;100622.22;4963249;28;20046;-94
2024/02/05 05:50:06;;;;;;;3.35;0.70;;;;;;;9.62;100.00;100614.44;4947210;28;20097;-94
2024/02/05 05:52:33;;;;;;;5.10;0.95;;;;;;;9.62;100.00;100617.09;4943516;28;20556;-93
2024/02/05 05:55:00;;;;;;;2.53;0.52;;;;;;;9.64;100.00;100607.22;4929519;28;20390;-95
2024/02/05 05:57:27;;;;;;;8.48;0.50;;;;;;;9.63;100.00;100613.47;4940198;28;20050;-94
2024/02/05 05:59:53;;;;;;;5.82;1.00;;;;;;;9.61;100.00;100589.84;4926611;28;20094;-94
2024/02/05 06:02:19;;;;;;;4.53;0.50;;;;;;;9.64;100.00;100594.00;4919648;29;20077;-94
2024/02/05 06:04:45;;;;;;;3.40;0.60;;;;;;;9.70;100.00;100592.66;4959431;28;20047;-95
2024/02/05 06:07:11;;;;;;;4.60;0.70;;;;;;;9.71;100.00;100589.88;4943318;28;20042;-95
2024/02/05 06:09:36;;;;;;;3.00;0.43;;;;;;;9.72;100.00;100588.06;4929032;28;20393;-94
2024/02/05 06:12:03;;;;;;;7.32;0.40;;;;;;;9.70;100.00;100582.09;4938391;28;20055;-94
2024/02/05 06:14:29;;;;;;;2.75;0.35;;;;;;;9.72;100.00;100585.41;4940900;28;20034;-94
2024/02/05 06:16:55;;;;;;;1.23;0.32;;;;;;;9.72;100.00;100582.78;4949243;28;20047;-95
2024/02/05 06:19:21;;;;;;;4.20;0.73;;;;;;;9.76;100.00;100584.19;4954628;28;20047;-95
2024/02/05 06:21:47;;;;;;;1.80;0.35;;;;;;;9.74;100.00;100578.22;4941843;28;20079;-94
2024/02/05 06:24:14;;;;;;;4.55;0.38;;;;;;;9.75;100.00;100580.72;4945987;28;20034;-93
2024/02/05 06:26:41;;;;;;;2.83;0.35;;;;;;;9.78;100.00;100583.06;4941162;28;20163;-93
2024/02/05 06:29:07;;;;;;;1.08;0.28;;;;;;;9.75;100.00;100579.88;4958649;28;20116;-94
2024/02/05 06:31:33;;;;;;;2.38;0.10;;;;;;;9.74;100.00;100575.56;4930386;28;20090;-94
2024/02/05 06:33:59;;;;;;;2.78;0.65;;;;;;;9.73;100.00;100577.38;4946586;28;20106;-94
2024/02/05 06:36:25;;;;;;;2.47;0.30;;;;;;;9.73;100.00;100574.72;4928641;28;20097;-94
2024/02/05 06:38:51;;;;;;;4.85;0.35;;;;;;;9.73;100.00;100572.09;4945859;28;20073;-95
2024/02/05 06:41:17;;;;;;;6.63;0.40;;;;;;;9.73;100.00;100580.00;4941393;28;20051;-94
2024/02/05 06:43:43;;;;;;;2.10;0.30;;;;;;;9.73;100.00;100579.19;4941799;28;20437;-94
2024/02/05 06:46:09;;;;;;;3.22;0.47;;;;;;;9.73;100.00;100577.38;4941076;28;20037;-94
2024/02/05 06:48:35;;;;;;;2.05;0.52;;;;;;;9.74;100.00;100567.66;4937209;29;20125;-93
2024/02/05 06:51:01;;;;;;;0.45;0.20;;;;;;;9.67;100.00;100565.56;4923987;28;20037;-95
2024/02/05 06:53:27;;;;;;;0.63;0.20;;;;;;;9.68;100.00;100561.13;4943033;28;20035;-93
2024/02/05 06:55:53;;;;;;;1.20;0.30;;;;;;;9.69;100.00;100562.78;4925516;28;20142;-94
2024/02/05 06:58:19;;;;;;;2.47;0.30;;;;;;;9.67;100.00;100557.63;4948012;28;20054;-95
2024/02/05 07:00:46;;;;;;;0.50;0.10;;;;;;;9.67;100.00;100551.50;4941702;28;20121;-93
2024/02/05 07:03:12;;;;;;;0.93;0.20;;;;;;;9.62;100.00;100545.84;4945373;28;20031;-93
2024/02/05 07:05:38;;;;;;;2.22;0.40;;;;;;;9.62;100.00;100543.19;4941211;28;20050;-92
2024/02/05 07:08:04;;;;;;;2.03;0.13;;;;;;;9.64;100.00;100533.31;4945476;28;20049;-92
2024/02/05 07:10:30;;;;;;;2.20;0.28;;;;;;;9.64;100.00;100533.31;4963818;28;20112;-93
2024/02/05 07:12:56;;;;;;;1.98;0.20;;;;;;;9.66;100.00;100528.75;4927548;28;20039;-93
2024/02/05 07:15:21;;;;;;;2.20;0.50;;;;;;;9.69;100.00;100541.66;4972725;28;20480;-93
2024/02/05 07:17:47;;;;;;;2.35;0.35;;;;;;;9.67;100.00;100525.97;4947455;28;20034;-94
2024/02/05 07:20:13;;;;;;;1.95;0.30;;;;;;;9.73;100.00;100529.84;4942928;28;20062;-94
2024/02/05 07:22:39;;;;;;;6.28;0.50;;;;;;;9.77;100.00;100536.53;4927324;28;20758;-93
2024/02/05 07:25:06;;;;;;;3.22;0.43;;;;;;;9.78;100.00;100532.06;4940456;28;20062;-96
2024/02/05 07:27:33;;;;;;;1.38;0.28;;;;;;;9.77;100.00;100519.88;4926968;28;20133;-94
2024/02/05 07:29:59;;;;;;;2.53;0.52;;;;;;;9.80;100.00;100524.88;4987009;28;20124;-91
2024/02/05 07:32:25;;;;;;;4.75;0.30;;;;;;;9.85;100.00;100522.66;4953869;28;20382;-95
2024/02/05 07:34:52;;;;;;;3.08;0.57;;;;;;;9.87;100.00;100526.00;4947681;29;20053;-92
2024/02/05 07:37:18;;;;;;;2.05;0.55;;;;;;;9.90;100.00;100524.88;4970989;28;20035;-94
2024/02/05 07:39:43;;;;;;;2.78;0.50;;;;;;;9.91;100.00;100523.91;4943755;28;20045;-94
2024/02/05 07:42:09;;;;;;;1.30;0.30;;;;;;;9.91;100.00;100523.91;4927036;28;20035;-94
2024/02/05 07:44:35;;;;;;;3.80;0.80;;;;;;;9.92;100.00;100517.66;4959961;28;20125;-94
2024/02/05 07:47:01;;;;;;;1.20;0.45;;;;;;;9.96;100.00;100519.03;4944993;28;20085;-94
2024/02/05 07:49:27;;;;;;;4.43;0.65;;;;;;;9.91;100.00;100511.53;4949675;28;20473;-94
2024/02/05 07:51:55;;;;;;;3.75;0.50;;;;;;;9.96;100.00;100519.03;4953102;28;20038;-94
2024/02/05 07:54:24;;;;;;;4.03;0.95;;;;;;;9.98;100.00;100519.75;4932003;28;20038;-95
2024/02/05 07:56:51;;;;;;;6.00;1.23;;;;;;;9.98;100.00;100516.25;4961510;28;20045;-94
2024/02/05 07:59:16;;;;;;;2.08;0.50;;;;;;;10.01;100.00;100516.84;4956365;28;20051;-94
2024/02/05 08:01:42;;;;;;;2.88;0.50;;;;;;;10.04;100.00;100507.78;4957495;28;20600;-92
2024/02/05 08:04:08;;;;;;;2.95;0.73;;;;;;;10.00;100.00;100501.94;4944754;28;20038;-92
2024/02/05 08:06:34;;;;;;;2.25;0.60;;;;;;;10.03;100.00;100500.84;4934329;28;20039;-92
2024/02/05 08:09:00;;;;;;;5.32;0.85;;;;;;;10.02;100.00;100497.38;4959154;28;20097;-94
2024/02/05 08:11:26;;;;;;;4.78;1.08;;;;;;;9.99;100.00;100499.44;4959015;28;20042;-95
2024/02/05 08:13:52;;;;;;;3.67;0.98;;;;;;;10.01;100.00;100501.00;4947884;28;20089;-94
2024/02/05 08:16:19;;;;;;;6.40;0.95;;;;;;;10.00;100.00;100499.31;4946485;28;20038;-94
2024/02/05 08:18:46;;;;;;;5.07;0.80;;;;;;;10.02;100.00;100494.72;4946632;28;20042;-95
2024/02/05 08:21:12;;;;;;;8.52;0.80;;;;;;;9.95;100.00;100488.34;4964907;28;20064;-94
2024/02/05 08:23:38;;;;;;;9.02;1.08;;;;;;;9.99;100.00;100492.38;4961382;28;20070;-94
2024/02/05 08:26:05;;;;;;;3.63;0.50;;;;;;;9.96;100.00;100484.72;4942402;28;20043;-95
2024/02/05 08:28:31;;;;;;;9.35;1.95;;;;;;;9.96;100.00;100481.25;4942218;28;20129;-95
2024/02/05 08:31:01;;;;;;;3.50;0.65;;;;;;;9.97;100.00;100475.00;4953283;28;20034;-94
2024/02/05 08:33:27;;;;;;;6.68;1.15;;;;;;;9.97;100.00;100481.09;4958783;28;20065;-95
2024/02/05 08:35:53;;;;;;;2.38;0.70;;;;;;;9.92;100.00;100468.31;4953937;28;20089;-94
2024/02/05 08:38:19;;;;;;;4.00;1.50;;;;;;;9.93;100.00;100475.28;4962328;28;20042;-94
2024/02/05 08:40:48;;;;;;;4.63;0.90;;;;;;;10.01;100.00;100473.75;4954958;28;20039;-92
2024/02/05 08:43:14;;;;;;;5.53;1.00;;;;;;;9.93;100.00;100482.34;4963883;28;20027;-95
2024/02/05 08:45:40;;;;;;;9.95;1.00;;;;;;;9.96;100.00;100471.50;4931313;28;20434;-93
2024/02/05 08:48:06;;;;;;;7.80;0.88;;;;;;;9.95;100.00;100469.84;4945582;29;20038;-95
2024/02/05 08:50:35;;;;;;;3.42;0.63;;;;;;;9.99;100.00;100468.59;4948219;28;20034;-95
2024/02/05 08:53:02;;;;;;;4.80;1.00;;;;;;;9.99;100.00;100473.03;4946480;28;20034;-94
2024/02/05 08:55:28;;;;;;;8.95;1.00;;;;;;;9.97;100.00;100456.53;4932520;28;20030;-94
2024/02/05 08:57:54;;;;;;;4.47;1.08;;;;;;;10.01;100.00;100460.53;4946499;28;20035;-94
2024/02/05 09:00:21;;;;;;;8.10;1.00;;;;;;;10.03;100.00;100458.59;4972699;28;20038;-93
2024/02/05 09:02:49;;;;;;;3.80;0.80;;;;;;;10.03;100.00;100451.50;4941892;28;20042;-95
2024/02/05 09:05:15;;;;;;;3.92;0.90;;;;;;;10.05;100.00;100459.28;4967383;28;20058;-94
2024/02/05 09:07:41;;;;;;;5.80;1.17;;;;;;;10.01;100.00;100448.19;4949622;28;20046;-93
2024/02/05 09:10:07;;;;;;;7.43;1.02;;;;;;;9.98;100.00;100450.25;4948061;28;20035;-94
2024/02/05 09:12:33;;;;;;;5.10;0.82;;;;;;;10.00;100.00;100448.31;4928297;28;20042;-94
2024/02/05 09:15:00;;;;;;;6.80;0.95;;;;;;;9.98;100.00;100448.47;4926032;28;20023;-94
2024/02/05 09:17:26;;;;;;;6.53;1.00;;;;;;;9.99;100.00;100451.91;4937896;28;20438;-95
2024/02/05 09:19:52;;;;;;;5.68;0.90;;;;;;;9.96;100.00;100446.91;4947091;28;20062;-93
2024/02/05 09:22:18;;;;;;;7.55;1.02;;;;;;;9.93;100.00;100442.75;4957051;28;20031;-94
2024/02/05 09:24:45;;;;;;;3.83;1.05;;;;;;;9.93;100.00;100445.41;4951846;28;20038;-94
2024/02/05 09:27:11;;;;;;;5.35;0.90;;;;;;;9.91;100.00;100444.69;4922665;28;20470;-93
2024/02/05 09:29:37;;;;;;;3.40;0.85;;;;;;;9.92;100.00;100449.03;4962067;28;20512;-94
2024/02/05 09:32:06;;;;;;;6.55;0.70;;;;;;;9.94;100.00;100436.50;4947139;28;20041;-95
2024/02/05 09:34:41;;;;;;;4.63;1.25;;;;;;;9.99;100.00;100439.56;4956508;28;20399;-95
2024/02/05 09:37:07;;;;;;;7.63;1.20;;;;;;;10.03;100.00;100440.09;4944792;28;20034;-95
2024/02/05 09:39:33;;;;;;;8.32;1.08;;;;;;;10.00;100.00;100428.00;4940321;28;20455;-95
2024/02/05 09:42:03;;;;;;;4.65;1.30;;;;;;;10.07;100.00;100433.56;4943678;28;20432;-95
2024/02/05 09:44:35;;;;;;;7.95;0.90;;;;;;;10.12;100.00;100427.84;4941055;28;20030;-91
2024/02/05 09:47:03;;;;;;;5.70;1.13;;;;;;;10.13;100.00;100418.97;4956129;28;20042;-95
2024/02/05 09:49:29;;;;;;;8.00;1.40;;;;;;;10.24;100.00;100433.81;4976562;28;20057;-94
2024/02/05 09:51:56;;;;;;;8.43;1.40;;;;;;;10.25;100.00;100425.75;4958697;28;20400;-95
2024/02/05 09:54:23;;;;;;;5.45;1.27;;;;;;;10.32;100.00;100425.19;4948822;28;20049;-94
2024/02/05 09:56:51;;;;;;;4.57;1.50;;;;;;;10.32;100.00;100419.91;4938735;28;20033;-95
2024/02/05 09:59:17;;;;;;;6.53;1.42;;;;;;;10.38;100.00;100429.88;4928815;28;20050;-94
2024/02/05 10:01:44;;;;;;;10.05;2.58;;;;;;;10.42;100.00;100421.53;4940897;28;20046;-95
2024/02/05 10:04:12;;;;;;;7.15;1.38;;;;;;;10.49;100.00;100421.81;4940359;28;20501;-93
2024/02/05 10:06:40;;;;;;;5.60;1.90;;;;;;;10.48;100.00;100417.50;4965602;28;20042;-93
2024/02/05 10:09:08;;;;;;;7.68;1.98;;;;;;;10.54;100.00;100419.56;4940458;28;20034;-96
2024/02/05 10:11:38;;;;;;;8.90;1.65;;;;;;;10.53;100.00;100404.69;4943830;28;20035;-94
2024/02/05 10:14:05;;;;;;;9.32;1.55;;;;;;;10.53;100.00;100409.13;4936010;28;20041;-94
2024/02/05 10:16:31;;;;;;;6.90;1.40;;;;;;;10.57;100.00;100404.41;4924444;28;20038;-95
2024/02/05 10:19:04;;;;;;;10.43;2.42;;;;;;;10.62;100.00;100400.34;4961232;28;20122;-96
2024/02/05 10:21:32;;;;;;;12.43;1.88;;;;;;;10.62;100.00;100408.25;4938655;28;20050;-95
2024/02/05 10:24:01;;;;;;;6.15;1.67;;;;;;;10.62;100.00;100394.25;4959846;28;20043;-95
2024/02/05 10:26:27;;;;;;;7.30;1.90;;;;;;;10.61;100.00;100400.47;4944297;28;20089;-96
2024/02/05 10:29:07;;;;;;;13.98;1.77;;;;;;;10.67;100.00;100406.03;4959403;28;20089;-96
2024/02/05 10:31:43;;;;;;;13.02;3.88;;;;;;;10.62;100.00;100395.03;4932925;28;20046;-92
2024/02/05 10:34:18;;;;;;;13.00;2.00;;;;;;;10.61;100.00;100395.19;4932921;28;20205;-95
2024/02/05 10:36:45;;;;;;;5.45;1.70;;;;;;;10.61;100.00;100396.03;4919056;29;20059;-92
2024/02/05 10:39:22;;;;;;;7.55;1.75;;;;;;;10.67;100.00;100392.00;4919587;28;20090;-94
2024/02/05 10:41:49;;;;;;;9.82;2.28;;;;;;;10.64;100.00;100400.19;4940767;28;20102;-95
2024/02/05 10:44:16;;;;;;;7.78;2.17;;;;;;;10.61;100.00;100387.25;4934803;28;20027;-96
2024/02/05 10:46:42;;;;;;;7.90;1.90;;;;;;;10.63;100.00;100388.81;4942989;28;20042;-94
2024/02/05 10:49:14;;;;;;;8.93;2.10;;;;;;;10.67;100.00;100376.13;4939997;28;20030;-94
2024/02/05 10:51:40;;;;;;;11.90;2.25;;;;;;;10.68;100.00;100377.78;4925590;28;20046;-94
2024/02/05 10:54:08;;;;;;;10.13;2.10;;;;;;;10.70;100.00;100375.84;4947240;28;20041;-95
2024/02/05 10:56:38;;;;;;;7.93;2.20;;;;;;;10.66;100.00;100371.81;4940791;28;20035;-92
2024/02/05 10:59:05;;;;;;;11.15;2.00;;;;;;;10.68;100.00;100375.16;4940931;28;20031;-96
2024/02/05 11:01:41;;;;;;;9.85;1.95;;;;;;;10.77;100.00;100368.97;4937936;28;20035;-95
2024/02/05 11:04:09;;;;;;;11.43;2.03;;;;;;;10.73;100.00;100367.63;4959022;28;20038;-94
2024/02/05 11:06:47;;;;;;;8.35;2.30;;;;;;;10.80;100.00;100365.19;4925689;28;20031;-96
2024/02/05 11:09:16;;;;;;;8.85;2.65;;;;;;;10.81;100.00;100363.38;4945334;28;20023;-96
2024/02/05 11:11:49;;;;;;;9.45;1.92;;;;;;;10.82;100.00;100365.03;4955064;28;20050;-93
2024/02/05 11:14:19;;;;;;;6.72;2.03;;;;;;;10.80;100.00;100362.53;4935307;29;20070;-93
2024/02/05 11:16:46;;;;;;;13.80;3.00;;;;;;;10.83;100.00;100367.53;4939859;28;20046;-95
2024/02/05 11:19:14;;;;;;;11.90;2.15;;;;;;;10.90;100.00;100370.44;4945441;28;20043;-94
2024/02/05 11:21:50;;;;;;;11.02;2.53;;;;;;;10.88;100.00;100370.56;4950118;28;20049;-95
2024/02/05 11:24:19;;;;;;;8.88;2.10;;;;;;;10.91;100.00;100364.16;4950825;28;20035;-96
2024/02/05 11:26:48;;;;;;;11.25;2.15;;;;;;;10.84;100.00;100363.09;4945110;28;20046;-94
2024/02/05 11:29:24;;;;;;;11.10;2.78;;;;;;;10.95;100.00;100360.25;4945384;28;20493;-95
2024/02/05 11:31:52;;;;;;;;;;;;;;;10.90;100.00;100363.34;4942650;29;20027;-96
2024/02/05 11:34:19;;;;;;;11.07;2.35;;;;;;;10.88;100.00;100356.50;4939713;28;19918;-96
2024/02/05 11:36:53;;;;;;;11.75;2.45;;;;;;;10.95;100.00;100349.66;4929314;29;20386;-94
2024/02/05 11:39:29;;;;;;;15.52;2.78;;;;;;;10.97;100.00;100346.88;4944957;28;20481;-95